Terminal Aerodrome Forecast
Issued by NWS

Home | Current Version | Previous Version | Text Only | Print | Product List | Glossary On
Versions: 1 2 3 4 5 6 7 8 9 10 11 12 13
000
FTUS46 KSGX 281700
TAFONT
TAF
KONT 281731Z 2818/2924 26005KT P6SM VCSH SCT150 BKN200
     FM282000 25012KT P6SM SCT080 SCT150
     FM290400 25006KT P6SM SCT250
     FM292100 26011KT P6SM SCT250=

USA.gov is the U.S. government's official web portal to all federal, state and local government web resources and services.